Αναφορές METAR Αεροδρομίων

 

LGTS - THESSALONIKI - GREECE
Ενημερώθηκε: 19/11/2017 09:50
Αραιές Νεφώσεις
Αραιές Νεφώσεις
 Ανεμος από varies
Ανεμος: varies 4 km/h
Θερμοκρασία: 12°C
Σημείο Δρόσου: 10°C
Υγρασία: 88%
Βαρόμετρο: 1011 hPa
Clouds: Αραιές Νεφώσεις
Visibility: 8 km
Cloud details: Αραιές Νεφώσεις 244 m
2017/11/19 07:50 LGTS 190750Z VRB02KT 8000 FEW008 12/10 Q1011 NOSIG
LGLR - LARTISA - GREECE
Ενημερώθηκε: 19/11/2017 09:50
Ασθενής βροχή, Σχεδόν νεφελώδης
Ασθενής βροχή, Σχεδόν νεφελώδης
 Ανεμος από calm
Ανεμος: Απνοια
Θερμοκρασία: 12°C
Σημείο Δρόσου: 9°C
Υγρασία: 82%
Βαρόμετρο: 1011 hPa
Περίληψη: Ασθενής βροχή
Clouds: Σχεδόν νεφελώδης
Visibility: 8 km
Cloud details: Μερικώς νεφελώδης 762 m
Σχεδόν νεφελώδης 2134 m
2017/11/19 07:50 LGLR 190750Z 00000KT 8000 -RA SCT025 BKN070 12/09 Q1011 BLU
 
LGKZ - KOZANI - GREECE
Ενημερώθηκε: 19/11/2017 09:50
Σχεδόν νεφελώδης
Σχεδόν νεφελώδης
 Ανεμος από ΒΔ
Ανεμος: ΒΔ 11 km/h
Θερμοκρασία: 9°C
Δείκτη Ψύχρας: 7°C
Σημείο Δρόσου: 6°C
Υγρασία: 82%
Βαρόμετρο: 1011 hPa
Clouds: Σχεδόν νεφελώδης
Visibility: 10 km
Cloud details: Αραιές Νεφώσεις 244 m
Μερικώς νεφελώδης 762 m
Σχεδόν νεφελώδης 2134 m
2017/11/19 07:50 LGKZ 190750Z 32006KT 9999 FEW008 SCT025 BKN070 09/06 Q1011
LGKV - KAVALA - GREECE
Ενημερώθηκε: 19/11/2017 09:50
Σχεδόν νεφελώδης
Σχεδόν νεφελώδης
 Ανεμος από calm
Ανεμος: Απνοια
Θερμοκρασία: 13°C
Σημείο Δρόσου: 10°C
Υγρασία: 82%
Βαρόμετρο: 1010 hPa
Clouds: Σχεδόν νεφελώδης
Visibility: 10 km
Cloud details: Αραιές Νεφώσεις 457 m
Μερικώς νεφελώδης 1067 m
Σχεδόν νεφελώδης 2438 m
2017/11/19 07:50 LGKV 190750Z 00000KT 9999 FEW015 SCT035 BKN080 13/10 Q1010
 
LGIO - IOANNINA - GREECE
Ενημερώθηκε: 19/11/2017 09:50
Μερικώς νεφελώδης
Μερικώς νεφελώδης
 Ανεμος από varies
Ανεμος: varies 0 km/h
Θερμοκρασία: 12°C
Σημείο Δρόσου: 9°C
Υγρασία: 82%
Βαρόμετρο: 1011 hPa
Clouds: Μερικώς νεφελώδης
Visibility: 10 km
Cloud details: Μερικώς νεφελώδης 183 m
Μερικώς νεφελώδης 1067 m
2017/11/19 07:50 LGIO 190750Z /////KT 9999 SCT006 SCT035 12/09 Q1011
LGBL - BOLOS - GREECE
Ενημερώθηκε: 19/11/2017 09:50
Ασθενής βροχή, Συννεφιά
Ασθενής βροχή, Συννεφιά
 Ανεμος από Δ
Ανεμος: Δ 9 km/h
Θερμοκρασία: 13°C
Σημείο Δρόσου: 12°C
Υγρασία: 94%
Βαρόμετρο: 1011 hPa
Περίληψη: Ασθενής βροχή
Clouds: Συννεφιά
Visibility: 6 km
Cloud details: Αραιές Νεφώσεις 457 m
Σχεδόν νεφελώδης 914 m
Συννεφιά 2438 m
2017/11/19 07:50 LGBL 190750Z 27005KT 6000 -RA FEW015 BKN030 OVC080 13/12 Q1011
 
LGMT - MITILINI - GREECE
Ενημερώθηκε: 19/11/2017 09:50
Μερικώς νεφελώδης
Μερικώς νεφελώδης
 Ανεμος από ΝΝΑ
Ανεμος: ΝΝΑ 11 km/h
Θερμοκρασία: 16°C
Σημείο Δρόσου: 14°C
Υγρασία: 88%
Βαρόμετρο: 1011 hPa
Clouds: Μερικώς νεφελώδης
Visibility: 10 km
Cloud details: Μερικώς νεφελώδης 549 m
2017/11/19 07:50 LGMT 190750Z 15006KT 9999 SCT018TCU 16/14 Q1011
LGAV - ATHENS - GREECE
Ενημερώθηκε: 19/11/2017 09:50
Σχεδόν νεφελώδης
Σχεδόν νεφελώδης
 Ανεμος από varies
Ανεμος: varies 2 km/h
Θερμοκρασία: 14°C
Σημείο Δρόσου: 11°C
Υγρασία: 82%
Βαρόμετρο: 1010 hPa
Clouds: Σχεδόν νεφελώδης
Visibility: 10 km
Cloud details: Μερικώς νεφελώδης 549 m
Σχεδόν νεφελώδης 1524 m
2017/11/19 07:50 LGAV 190750Z VRB01KT 9999 SCT018 BKN050 14/11 Q1010 NOSIG
 
LGRP - RODOS - GREECE
Ενημερώθηκε: 19/11/2017 09:50
Μερικώς νεφελώδης
Μερικώς νεφελώδης
 Ανεμος από ΝΔ
Ανεμος: ΝΔ 11 km/h
Θερμοκρασία: 18°C
Σημείο Δρόσου: 13°C
Υγρασία: 73%
Βαρόμετρο: 1011 hPa
Clouds: Μερικώς νεφελώδης
Visibility: 10 km
Cloud details: Αραιές Νεφώσεις 549 m
Μερικώς νεφελώδης 762 m
2017/11/19 07:50 LGRP 190750Z 23006KT 9999 FEW018TCU SCT025 18/13 Q1011 NOSIG
LGIR - HRAKLIO/KRITI - GREECE
Ενημερώθηκε: 19/11/2017 09:50
Αραιές Νεφώσεις
Αραιές Νεφώσεις
 Ανεμος από ΝΝΑ
Ανεμος: ΝΝΑ 11 km/h
Θερμοκρασία: 20°C
Σημείο Δρόσου: 12°C
Υγρασία: 60%
Βαρόμετρο: 1012 hPa
Clouds: Αραιές Νεφώσεις
Visibility: 10 km
Cloud details: Αραιές Νεφώσεις 610 m
2017/11/19 07:50 LGIR 190750Z 15006KT 9999 FEW020 20/12 Q1012 NOSIG
 
LGMK - MIKONOS - GREECE
Ενημερώθηκε: 19/11/2017 09:50
Αραιές Νεφώσεις
Αραιές Νεφώσεις
 Ανεμος από ΝΝΔ
Ανεμος: ΝΝΔ 7 km/h
Θερμοκρασία: 17°C
Σημείο Δρόσου: 14°C
Υγρασία: 83%
Βαρόμετρο: 1010 hPa
Clouds: Αραιές Νεφώσεις
Visibility: 10 km
Cloud details: Αραιές Νεφώσεις 549 m
2017/11/19 07:50 LGMK 190750Z 20004KT 9999 FEW018 17/14 Q1010
LGKR - KERKIRA - GREECE
Ενημερώθηκε: 19/11/2017 09:50
Σχεδόν νεφελώδης
Σχεδόν νεφελώδης
 Ανεμος από ΔΒΔ
Ανεμος: ΔΒΔ 7 km/h
Θερμοκρασία: 16°C
Σημείο Δρόσου: 12°C
Υγρασία: 77%
Βαρόμετρο: 1011 hPa
Clouds: Σχεδόν νεφελώδης
Visibility: 10 km
Cloud details: Αραιές Νεφώσεις 244 m
Μερικώς νεφελώδης 914 m
Σχεδόν νεφελώδης 2438 m
2017/11/19 07:50 LGKR 190750Z 30004KT 9999 FEW008 SCT030 BKN080 16/12 Q1011 NOSIG